Terminal Aerodrome Forecast
Issued by NWS

Home | Current Version | Previous Version | Text Only | Print | Product List | Glossary On
Versions: 1 2 3 4 5 6 7 8 9 10 11 12 13 14 15 16 17 18 19 20 21 22 23 24 25 26 27 28 29 30
000
FTUS46 KLOX 292340
TAFLAX
TAF
KLAX 292340Z 3000/0106 25012KT P6SM SCT150 BKN250
     FM300200 26007KT P6SM SCT150 BKN250
     FM301000 23005KT P6SM SCT015
     FM301300 VRB03KT 4SM BR SCT015 SCT250
     FM301700 VRB03KT P6SM SCT015 SCT150 BKN250
     FM301800 25009KT P6SM BKN250
     FM302100 25012KT P6SM SCT250
     FM010300 25009KT P6SM SCT250=

USA.gov is the U.S. government's official web portal to all federal, state and local government web resources and services.